Time;durP1;ratioP1;P1;durP2;ratioP2;P2;SDS_P1;SDS_P2;PMS_P1;PMS_P2;Temp;Humidity;BMP_temperature;BMP_pressure;BME280_temperature;BME280_humidity;BME280_pressure;Samples;Min_cycle;Max_cycle;Signal;HPM_P1;HPM_P2
2024/02/26 00:01:01;;;;;;;14.63;5.50;;;6.30;99.90;;;;;;5087797;28;20530;-73
2024/02/26 00:03:29;;;;;;;11.52;5.60;;;6.40;99.90;;;;;;5078324;28;21269;-74
2024/02/26 00:05:56;;;;;;;15.68;6.28;;;6.40;99.90;;;;;;5083312;28;20046;-73
2024/02/26 00:08:23;;;;;;;16.05;6.78;;;6.30;99.90;;;;;;5101827;28;20087;-73
2024/02/26 00:10:50;;;;;;;14.55;5.55;;;6.30;99.90;;;;;;5085128;28;20381;-74
2024/02/26 00:13:17;;;;;;;20.15;5.82;;;6.30;99.90;;;;;;5103250;28;20055;-73
2024/02/26 00:15:44;;;;;;;12.93;6.00;;;6.30;99.90;;;;;;5098780;28;20706;-72
2024/02/26 00:18:11;;;;;;;18.00;5.80;;;6.30;99.90;;;;;;5103187;28;20050;-71
2024/02/26 00:20:39;;;;;;;10.63;5.60;;;6.30;99.90;;;;;;5103004;28;20313;-72
2024/02/26 00:23:06;;;;;;;15.90;5.13;;;6.30;99.90;;;;;;5104023;28;20507;-72
2024/02/26 00:25:33;;;;;;;12.50;6.35;;;6.30;99.90;;;;;;5075991;28;20048;-72
2024/02/26 00:28:00;;;;;;;9.18;4.90;;;6.30;99.90;;;;;;5103872;28;20055;-72
2024/02/26 00:30:27;;;;;;;10.35;4.65;;;6.30;99.90;;;;;;5105482;28;20082;-72
2024/02/26 00:32:54;;;;;;;9.10;4.97;;;6.30;99.90;;;;;;5104720;28;20096;-72
2024/02/26 00:35:20;;;;;;;15.10;5.03;;;6.30;99.90;;;;;;5102415;28;20575;-72
2024/02/26 00:37:47;;;;;;;12.02;4.88;;;6.30;99.90;;;;;;5104881;28;20059;-73
2024/02/26 00:40:14;;;;;;;12.43;4.80;;;6.30;99.90;;;;;;5104294;28;20242;-71
2024/02/26 00:42:45;;;;;;;8.82;4.20;;;6.30;99.90;;;;;;5106841;28;20047;-72
2024/02/26 00:45:12;;;;;;;8.18;4.60;;;6.30;99.90;;;;;;5101809;28;20446;-70
2024/02/26 00:47:41;;;;;;;12.38;5.32;;;6.30;99.90;;;;;;5100890;28;20484;-71
2024/02/26 00:50:08;;;;;;;13.20;6.13;;;6.30;99.90;;;;;;5086914;28;20127;-71
2024/02/26 00:52:35;;;;;;;9.43;4.78;;;6.30;99.90;;;;;;5103007;28;20050;-71
2024/02/26 00:55:02;;;;;;;14.50;5.95;;;6.30;99.90;;;;;;5096994;28;20492;-72
2024/02/26 00:57:29;;;;;;;8.18;4.93;;;6.30;99.90;;;;;;5103768;28;20508;-72
2024/02/26 00:59:56;;;;;;;16.98;6.75;;;6.30;99.90;;;;;;5091963;28;20264;-71
2024/02/26 01:02:23;;;;;;;22.98;6.20;;;6.40;99.90;;;;;;5074877;28;20647;-72
2024/02/26 01:04:50;;;;;;;18.15;7.97;;;6.40;99.90;;;;;;5103164;28;20047;-71
2024/02/26 01:07:17;;;;;;;17.90;7.10;;;6.40;99.90;;;;;;5103463;28;20416;-70
2024/02/26 01:09:44;;;;;;;18.10;7.63;;;6.40;99.90;;;;;;5074216;28;20047;-71
2024/02/26 01:12:11;;;;;;;12.00;6.93;;;6.40;99.90;;;;;;5104049;28;20059;-71
2024/02/26 01:14:38;;;;;;;12.93;6.72;;;6.40;99.90;;;;;;5095851;28;20052;-71
2024/02/26 01:17:05;;;;;;;14.10;6.00;;;6.40;99.90;;;;;;5099683;28;20431;-71
2024/02/26 01:19:32;;;;;;;16.48;7.22;;;6.40;99.90;;;;;;5104929;28;20403;-72
2024/02/26 01:21:59;;;;;;;18.73;6.65;;;6.40;99.90;;;;;;5104088;28;20391;-72
2024/02/26 01:24:25;;;;;;;13.50;7.47;;;6.40;99.90;;;;;;5080367;28;20055;-71
2024/02/26 01:26:52;;;;;;;11.25;6.70;;;6.50;99.90;;;;;;5103406;28;20180;-72
2024/02/26 01:29:19;;;;;;;19.40;7.93;;;6.50;99.90;;;;;;5096710;28;20052;-71
2024/02/26 01:31:46;;;;;;;14.27;7.03;;;6.50;99.90;;;;;;5105881;28;20097;-72
2024/02/26 01:34:13;;;;;;;13.45;6.35;;;6.50;99.90;;;;;;5094228;28;20100;-72
2024/02/26 01:36:41;;;;;;;15.43;7.13;;;6.50;99.90;;;;;;5096705;28;20100;-72
2024/02/26 01:39:07;;;;;;;19.75;7.38;;;6.50;99.90;;;;;;5099973;28;20108;-70
2024/02/26 01:41:34;;;;;;;13.75;7.00;;;6.50;99.90;;;;;;5101371;28;20132;-71
2024/02/26 01:44:01;;;;;;;18.52;7.25;;;6.60;99.90;;;;;;5104363;28;20492;-72
2024/02/26 01:46:28;;;;;;;11.80;6.35;;;6.50;99.90;;;;;;5085503;28;20051;-70
2024/02/26 01:48:55;;;;;;;16.05;7.03;;;6.50;99.90;;;;;;5080456;28;20055;-71
2024/02/26 01:51:22;;;;;;;18.35;6.45;;;6.50;99.90;;;;;;5079096;28;20127;-71
2024/02/26 01:53:49;;;;;;;14.63;6.60;;;6.50;99.90;;;;;;5099984;28;20139;-71
2024/02/26 01:56:15;;;;;;;13.45;6.40;;;6.50;99.90;;;;;;5088552;28;20050;-73
2024/02/26 01:58:42;;;;;;;13.32;7.38;;;6.50;99.90;;;;;;5105572;28;20252;-72
2024/02/26 02:01:09;;;;;;;19.55;6.25;;;6.50;99.90;;;;;;5088688;28;20107;-72
2024/02/26 02:03:36;;;;;;;16.50;7.35;;;6.50;99.90;;;;;;5103720;28;20131;-72
2024/02/26 02:06:03;;;;;;;13.82;6.38;;;6.50;99.90;;;;;;5110181;28;20046;-72
2024/02/26 02:08:30;;;;;;;13.00;6.70;;;6.60;99.90;;;;;;5110111;28;20089;-72
2024/02/26 02:10:57;;;;;;;10.95;6.30;;;6.50;99.90;;;;;;5090067;28;20043;-71
2024/02/26 02:13:24;;;;;;;13.52;7.93;;;6.50;99.90;;;;;;5108690;28;20062;-72
2024/02/26 02:15:51;;;;;;;18.30;6.13;;;6.50;99.90;;;;;;5109778;28;20052;-72
2024/02/26 02:18:18;;;;;;;10.32;5.65;;;6.60;99.90;;;;;;5091388;28;20456;-71
2024/02/26 02:20:45;;;;;;;13.23;7.03;;;6.60;99.90;;;;;;5102898;28;20401;-72
2024/02/26 02:23:14;;;;;;;16.08;7.22;;;6.60;99.90;;;;;;5105952;28;20054;-71
2024/02/26 02:25:40;;;;;;;14.35;7.95;;;6.60;99.90;;;;;;5097914;28;20109;-72
2024/02/26 02:28:07;;;;;;;13.77;6.53;;;6.50;99.90;;;;;;5109013;28;20043;-71
2024/02/26 02:30:35;;;;;;;13.40;6.28;;;6.50;99.90;;;;;;5087865;28;20431;-71
2024/02/26 02:33:02;;;;;;;12.10;5.85;;;6.60;99.90;;;;;;5108611;28;20039;-71
2024/02/26 02:35:30;;;;;;;14.25;6.43;;;6.50;99.90;;;;;;5102957;28;20463;-70
2024/02/26 02:37:57;;;;;;;11.73;5.57;;;6.60;99.90;;;;;;5099526;28;20044;-71
2024/02/26 02:40:24;;;;;;;16.65;6.25;;;6.50;99.90;;;;;;5103623;28;20047;-71
2024/02/26 02:42:50;;;;;;;12.25;5.28;;;6.60;99.90;;;;;;5107907;28;20048;-71
2024/02/26 02:45:17;;;;;;;11.63;6.38;;;6.60;99.90;;;;;;5108325;28;20051;-70
2024/02/26 02:47:44;;;;;;;19.25;6.35;;;6.50;99.90;;;;;;5107385;28;20048;-68
2024/02/26 02:50:11;;;;;;;10.85;4.53;;;6.60;99.90;;;;;;5104642;28;20043;-71
2024/02/26 02:52:38;;;;;;;13.32;5.20;;;6.60;99.90;;;;;;5108640;28;20048;-71
2024/02/26 02:55:05;;;;;;;10.98;4.68;;;6.50;99.90;;;;;;5081135;28;20096;-71
2024/02/26 02:57:32;;;;;;;9.55;5.25;;;6.60;99.90;;;;;;5084817;28;20490;-71
2024/02/26 02:59:59;;;;;;;7.90;4.07;;;6.60;99.90;;;;;;5096906;28;20043;-72
2024/02/26 03:02:25;;;;;;;11.10;4.70;;;6.50;99.90;;;;;;5103161;28;20583;-71
2024/02/26 03:04:52;;;;;;;9.93;4.63;;;6.60;99.90;;;;;;5108982;28;20108;-72
2024/02/26 03:07:19;;;;;;;10.70;5.05;;;6.50;99.90;;;;;;5104002;28;20040;-71
2024/02/26 03:09:46;;;;;;;8.23;4.32;;;6.60;99.90;;;;;;5096792;28;20471;-72
2024/02/26 03:12:13;;;;;;;11.70;4.50;;;6.60;99.90;;;;;;5109462;28;20104;-72
2024/02/26 03:14:40;;;;;;;13.00;4.82;;;6.60;99.90;;;;;;5108692;28;20054;-70
2024/02/26 03:17:07;;;;;;;17.50;4.82;;;6.50;99.90;;;;;;5099938;28;20059;-70
2024/02/26 03:19:33;;;;;;;13.43;3.95;;;6.60;99.90;;;;;;5102478;28;20803;-70
2024/02/26 03:22:00;;;;;;;8.38;4.15;;;6.60;99.90;;;;;;5105821;28;20047;-71
2024/02/26 03:24:27;;;;;;;11.73;4.07;;;6.60;99.90;;;;;;5107466;28;20100;-71
2024/02/26 03:26:54;;;;;;;17.05;4.03;;;6.50;99.90;;;;;;5086736;28;20480;-72
2024/02/26 03:29:21;;;;;;;13.18;4.65;;;6.60;99.90;;;;;;5104543;28;20279;-70
2024/02/26 03:31:48;;;;;;;11.55;3.78;;;6.50;99.90;;;;;;5102321;28;20048;-70
2024/02/26 03:34:15;;;;;;;8.95;3.47;;;6.50;99.90;;;;;;5107313;28;20075;-70
2024/02/26 03:36:42;;;;;;;10.02;3.85;;;6.50;99.90;;;;;;5090168;28;20088;-70
2024/02/26 03:39:09;;;;;;;10.88;3.78;;;6.50;99.90;;;;;;5107807;28;20050;-70
2024/02/26 03:41:36;;;;;;;7.30;3.72;;;6.50;99.90;;;;;;5096658;28;20230;-70
2024/02/26 03:44:03;;;;;;;8.23;3.75;;;6.50;99.90;;;;;;5097274;28;20052;-72
2024/02/26 03:46:30;;;;;;;10.73;3.63;;;6.50;99.90;;;;;;5106680;28;20516;-71
2024/02/26 03:48:57;;;;;;;10.80;3.63;;;6.50;99.90;;;;;;5106679;28;20055;-71
2024/02/26 03:51:24;;;;;;;11.15;4.15;;;6.50;99.90;;;;;;5099397;28;20040;-71
2024/02/26 03:53:50;;;;;;;9.93;3.00;;;6.50;99.90;;;;;;5106883;28;20052;-70
2024/02/26 03:56:17;;;;;;;7.43;4.38;;;6.50;99.90;;;;;;5109048;28;20126;-71
2024/02/26 03:58:44;;;;;;;8.68;3.50;;;6.50;99.90;;;;;;5105834;28;20051;-71
2024/02/26 04:01:11;;;;;;;12.98;4.43;;;6.50;99.90;;;;;;5088391;28;20048;-72
2024/02/26 04:03:38;;;;;;;13.02;4.30;;;6.50;99.90;;;;;;5108394;28;20528;-70
2024/02/26 04:06:08;;;;;;;12.52;3.80;;;6.40;99.90;;;;;;5106123;28;20092;-69
2024/02/26 04:08:34;;;;;;;17.50;4.65;;;6.50;99.90;;;;;;5108163;28;20105;-70
2024/02/26 04:11:02;;;;;;;13.82;3.58;;;6.40;99.90;;;;;;5108144;28;20046;-71
2024/02/26 04:13:29;;;;;;;7.70;3.60;;;6.40;99.90;;;;;;5098942;28;20032;-70
2024/02/26 04:15:57;;;;;;;10.35;3.70;;;6.40;99.90;;;;;;5104955;28;20085;-71
2024/02/26 04:18:24;;;;;;;13.18;4.38;;;6.40;99.90;;;;;;5106306;28;20147;-71
2024/02/26 04:20:51;;;;;;;5.88;3.47;;;6.40;99.90;;;;;;5106051;28;20043;-71
2024/02/26 04:23:18;;;;;;;10.43;3.67;;;6.40;99.90;;;;;;5107525;28;20062;-69
2024/02/26 04:25:45;;;;;;;9.07;3.47;;;6.40;99.90;;;;;;5094823;28;20039;-69
2024/02/26 04:28:12;;;;;;;10.70;3.22;;;6.40;99.90;;;;;;5101057;28;20051;-70
2024/02/26 04:30:39;;;;;;;8.15;3.30;;;6.40;99.90;;;;;;5098676;28;20563;-70
2024/02/26 04:33:05;;;;;;;15.38;4.00;;;6.30;99.90;;;;;;5106150;28;20047;-70
2024/02/26 04:35:34;;;;;;;6.10;2.95;;;6.40;99.90;;;;;;5095510;28;20043;-71
2024/02/26 04:38:01;;;;;;;14.25;3.05;;;6.40;99.90;;;;;;5098083;28;20051;-70
2024/02/26 04:40:28;;;;;;;12.32;3.25;;;6.30;99.90;;;;;;5106668;28;20246;-71
2024/02/26 04:42:55;;;;;;;7.05;2.88;;;6.30;99.90;;;;;;5105738;28;20055;-71
2024/02/26 04:45:22;;;;;;;6.60;3.17;;;6.30;99.90;;;;;;5088568;28;20065;-71
2024/02/26 04:47:48;;;;;;;6.05;4.03;;;6.40;99.90;;;;;;5105150;28;20048;-71
2024/02/26 04:50:15;;;;;;;5.10;2.83;;;6.30;99.90;;;;;;5100470;28;20050;-71
2024/02/26 04:52:42;;;;;;;9.73;2.85;;;6.30;99.90;;;;;;5091737;28;20051;-70
2024/02/26 04:55:09;;;;;;;5.88;2.17;;;6.30;99.90;;;;;;5105900;28;20077;-69
2024/02/26 04:57:36;;;;;;;8.75;3.00;;;6.30;99.90;;;;;;5105002;28;20086;-71
2024/02/26 05:00:05;;;;;;;7.55;2.33;;;6.30;99.90;;;;;;5106415;28;20055;-70
2024/02/26 05:02:33;;;;;;;10.35;2.45;;;6.30;99.90;;;;;;5105856;28;20062;-69
2024/02/26 05:05:00;;;;;;;9.13;2.38;;;6.30;99.90;;;;;;5097425;28;20416;-70
2024/02/26 05:07:27;;;;;;;9.65;2.90;;;6.30;99.90;;;;;;5088098;28;20139;-69
2024/02/26 05:09:53;;;;;;;6.82;2.67;;;6.30;99.90;;;;;;5101706;28;20458;-69
2024/02/26 05:12:20;;;;;;;10.60;4.28;;;6.20;99.90;;;;;;5099908;28;20771;-70
2024/02/26 05:14:47;;;;;;;7.18;1.98;;;6.20;99.90;;;;;;5098336;28;20131;-70
2024/02/26 05:17:14;;;;;;;5.78;3.08;;;6.20;99.90;;;;;;5105990;28;20052;-71
2024/02/26 05:19:41;;;;;;;5.20;1.80;;;6.20;99.90;;;;;;5104906;28;20553;-70
2024/02/26 05:22:08;;;;;;;35.67;4.28;;;6.30;99.90;;;;;;5087944;28;20052;-70
2024/02/26 05:24:37;;;;;;;9.85;2.60;;;6.30;99.90;;;;;;5104452;28;20051;-71
2024/02/26 05:27:04;;;;;;;11.38;2.63;;;6.20;99.90;;;;;;5106208;28;20055;-70
2024/02/26 05:29:31;;;;;;;12.75;2.60;;;6.20;99.90;;;;;;5095161;28;20572;-71
2024/02/26 05:31:58;;;;;;;11.32;2.28;;;6.20;99.90;;;;;;5099543;28;20170;-69
2024/02/26 05:34:25;;;;;;;4.38;1.67;;;6.20;99.90;;;;;;5099013;28;20079;-72
2024/02/26 05:36:52;;;;;;;6.03;2.15;;;6.20;99.90;;;;;;5105414;28;20450;-69
2024/02/26 05:39:19;;;;;;;14.15;2.50;;;6.20;99.90;;;;;;5094162;28;20439;-68
2024/02/26 05:41:47;;;;;;;11.77;2.47;;;6.20;99.90;;;;;;5102809;28;20139;-70
2024/02/26 05:44:14;;;;;;;7.97;2.00;;;6.20;99.90;;;;;;5108881;28;20050;-70
2024/02/26 05:46:42;;;;;;;9.30;2.00;;;6.20;99.90;;;;;;5111138;28;20130;-70
2024/02/26 05:49:09;;;;;;;11.23;2.28;;;6.20;99.90;;;;;;5107181;28;20153;-69
2024/02/26 05:51:36;;;;;;;10.65;1.90;;;6.20;99.90;;;;;;5109504;28;20036;-70
2024/02/26 05:54:03;;;;;;;11.07;1.98;;;6.20;99.90;;;;;;5109045;28;20047;-70
2024/02/26 05:56:29;;;;;;;8.05;2.35;;;6.10;99.90;;;;;;5110370;28;20495;-69
2024/02/26 05:58:56;;;;;;;6.75;2.58;;;6.20;99.90;;;;;;5108275;28;20063;-70
2024/02/26 06:01:24;;;;;;;4.57;1.60;;;6.20;99.90;;;;;;5109093;28;20085;-70
2024/02/26 06:03:51;;;;;;;4.95;1.98;;;6.20;99.90;;;;;;5085096;28;20224;-69
2024/02/26 06:06:18;;;;;;;10.90;3.28;;;6.10;99.90;;;;;;5100434;28;20500;-70
2024/02/26 06:08:45;;;;;;;10.93;2.35;;;6.10;99.90;;;;;;5107130;28;20043;-70
2024/02/26 06:11:12;;;;;;;12.35;1.60;;;6.10;99.90;;;;;;5108611;28;20040;-69
2024/02/26 06:13:39;;;;;;;7.03;2.50;;;6.10;99.90;;;;;;5089728;28;20044;-70
2024/02/26 06:16:08;;;;;;;5.32;1.55;;;6.10;99.90;;;;;;5107100;28;20035;-70
2024/02/26 06:18:35;;;;;;;7.30;1.92;;;6.10;99.90;;;;;;5105962;28;20100;-70
2024/02/26 06:21:02;;;;;;;4.93;1.33;;;6.10;99.90;;;;;;5107543;28;20126;-70
2024/02/26 06:23:29;;;;;;;10.88;2.35;;;6.10;99.90;;;;;;5106040;28;20097;-70
2024/02/26 06:25:56;;;;;;;5.97;1.77;;;6.10;99.90;;;;;;5085028;28;20044;-71
2024/02/26 06:28:23;;;;;;;7.25;2.58;;;6.10;99.90;;;;;;5107525;28;20063;-70
2024/02/26 06:30:50;;;;;;;5.38;1.92;;;6.00;99.90;;;;;;5091630;28;20051;-70
2024/02/26 06:33:17;;;;;;;7.60;1.70;;;6.00;99.90;;;;;;5108000;28;20089;-71
2024/02/26 06:35:45;;;;;;;4.50;1.40;;;6.00;99.90;;;;;;5108444;28;20055;-70
2024/02/26 06:38:13;;;;;;;8.05;1.50;;;6.00;99.90;;;;;;5105826;28;20044;-70
2024/02/26 06:40:40;;;;;;;6.60;1.55;;;6.00;99.90;;;;;;5107985;28;20052;-68
2024/02/26 06:43:07;;;;;;;7.07;1.33;;;6.00;99.90;;;;;;5100682;28;20050;-69
2024/02/26 06:45:34;;;;;;;7.60;1.55;;;6.00;99.90;;;;;;5107030;28;20091;-71
2024/02/26 06:48:02;;;;;;;9.52;1.17;;;6.00;99.90;;;;;;5104447;28;20040;-70
2024/02/26 06:50:29;;;;;;;5.10;1.40;;;5.90;99.90;;;;;;5106470;28;20302;-70
2024/02/26 06:52:56;;;;;;;7.28;1.50;;;5.90;99.90;;;;;;5107633;28;20040;-69
2024/02/26 06:55:23;;;;;;;8.63;2.58;;;5.90;99.90;;;;;;5083450;28;20121;-69
2024/02/26 06:57:49;;;;;;;5.50;1.25;;;5.90;99.90;;;;;;5106141;28;20052;-69
2024/02/26 07:00:17;;;;;;;6.57;0.90;;;5.80;99.90;;;;;;5107192;28;20056;-69
2024/02/26 07:02:44;;;;;;;9.52;1.65;;;5.80;99.90;;;;;;5108052;28;20126;-69
2024/02/26 07:05:11;;;;;;;14.18;1.73;;;5.80;99.90;;;;;;5106556;28;20039;-70
2024/02/26 07:07:38;;;;;;;3.28;1.30;;;5.80;99.90;;;;;;5106141;28;20075;-70
2024/02/26 07:10:06;;;;;;;2.95;1.10;;;5.80;99.90;;;;;;5100060;28;20063;-69
2024/02/26 07:12:33;;;;;;;5.07;1.10;;;5.80;99.90;;;;;;5086378;28;20301;-71
2024/02/26 07:15:00;;;;;;;2.50;1.02;;;5.80;99.90;;;;;;5078434;28;20528;-69
2024/02/26 07:17:27;;;;;;;5.35;1.20;;;5.80;99.90;;;;;;5088888;28;20050;-69
2024/02/26 07:19:54;;;;;;;5.03;0.90;;;5.80;99.90;;;;;;5102403;28;20055;-69
2024/02/26 07:22:22;;;;;;;5.70;1.40;;;5.80;99.90;;;;;;5107747;28;20113;-70
2024/02/26 07:24:48;;;;;;;11.18;1.20;;;5.80;99.90;;;;;;5100194;28;20105;-69
2024/02/26 07:27:17;;;;;;;9.00;2.15;;;5.80;99.90;;;;;;5098805;28;20052;-71
2024/02/26 07:29:44;;;;;;;3.60;1.20;;;5.80;99.90;;;;;;5100545;28;20039;-70
2024/02/26 07:32:11;;;;;;;12.25;2.28;;;5.80;99.90;;;;;;5104558;28;20044;-70
2024/02/26 07:34:41;;;;;;;12.10;3.10;;;5.80;99.90;;;;;;5105544;28;20047;-70
2024/02/26 07:37:08;;;;;;;4.53;1.23;;;5.80;99.90;;;;;;5089173;28;20043;-69
2024/02/26 07:39:36;;;;;;;4.50;1.02;;;5.80;99.90;;;;;;5103816;28;20079;-70
2024/02/26 07:42:04;;;;;;;4.03;0.73;;;5.70;99.90;;;;;;5102685;28;20039;-67
2024/02/26 07:44:31;;;;;;;6.57;1.27;;;5.70;99.90;;;;;;5089586;28;20051;-68
2024/02/26 07:46:57;;;;;;;4.88;1.05;;;5.80;99.90;;;;;;5094315;28;20048;-68
2024/02/26 07:49:24;;;;;;;6.55;1.15;;;5.80;99.90;;;;;;5084950;28;20811;-68
2024/02/26 07:51:51;;;;;;;3.97;1.50;;;5.80;99.90;;;;;;5087897;28;20057;-68
2024/02/26 07:54:19;;;;;;;7.35;1.52;;;5.80;99.90;;;;;;5104635;28;20044;-68
2024/02/26 07:56:46;;;;;;;4.50;1.08;;;5.80;99.90;;;;;;5104234;28;20096;-69
2024/02/26 07:59:14;;;;;;;12.05;1.65;;;5.80;99.90;;;;;;5098077;28;20151;-68
2024/02/26 08:01:41;;;;;;;3.30;0.95;;;5.80;99.90;;;;;;5098862;28;20051;-66
2024/02/26 08:04:08;;;;;;;5.75;1.30;;;5.80;99.90;;;;;;5105188;28;20512;-68
2024/02/26 08:06:35;;;;;;;8.75;1.00;;;5.80;99.90;;;;;;5105440;28;20043;-68
2024/02/26 08:09:04;;;;;;;9.57;1.10;;;5.90;99.90;;;;;;5102452;28;20052;-68
2024/02/26 08:11:31;;;;;;;5.65;1.30;;;5.80;99.90;;;;;;5101093;28;20047;-69
2024/02/26 08:13:59;;;;;;;7.55;1.75;;;5.90;99.90;;;;;;5104277;28;20362;-69
2024/02/26 08:16:26;;;;;;;7.65;1.25;;;5.90;99.90;;;;;;5084243;28;20153;-67
2024/02/26 08:18:53;;;;;;;4.20;0.93;;;5.90;99.90;;;;;;5104447;28;20047;-68
2024/02/26 08:21:20;;;;;;;7.55;1.67;;;5.90;99.90;;;;;;5101875;28;20139;-68
2024/02/26 08:23:47;;;;;;;3.65;1.20;;;6.00;99.90;;;;;;5100823;28;20500;-67
2024/02/26 08:26:14;;;;;;;7.68;1.00;;;6.00;99.90;;;;;;5093141;28;20055;-65
2024/02/26 08:28:41;;;;;;;3.20;0.70;;;6.00;99.90;;;;;;5093078;28;20048;-68
2024/02/26 08:31:08;;;;;;;5.53;1.00;;;6.00;99.90;;;;;;5099232;28;20124;-68
2024/02/26 08:33:35;;;;;;;3.53;0.90;;;6.10;99.90;;;;;;5104484;28;20040;-68
2024/02/26 08:36:06;;;;;;;5.05;0.90;;;6.10;99.90;;;;;;5104521;28;20105;-68
2024/02/26 08:38:34;;;;;;;5.07;1.00;;;6.10;99.90;;;;;;5103047;28;20051;-68
2024/02/26 08:41:02;;;;;;;4.60;1.10;;;6.10;99.90;;;;;;5095768;28;20044;-67
2024/02/26 08:43:29;;;;;;;5.28;1.05;;;6.10;99.90;;;;;;5098738;28;20056;-68
2024/02/26 08:45:57;;;;;;;4.68;0.90;;;6.10;99.90;;;;;;5104301;28;20104;-69
2024/02/26 08:48:24;;;;;;;8.23;1.55;;;6.20;99.90;;;;;;5102340;28;20058;-69
2024/02/26 08:50:52;;;;;;;4.25;1.00;;;6.20;99.90;;;;;;5104963;28;20063;-68
2024/02/26 08:53:20;;;;;;;5.15;1.25;;;6.20;99.90;;;;;;5106145;28;20039;-68
2024/02/26 08:55:57;;;;;;;5.47;1.58;;;6.20;99.90;;;;;;5086416;28;20079;-67
2024/02/26 08:58:24;;;;;;;3.42;0.95;;;6.20;99.90;;;;;;5102765;28;20504;-68
2024/02/26 09:00:51;;;;;;;8.38;1.27;;;6.20;99.90;;;;;;5107234;28;20043;-68
2024/02/26 09:03:18;;;;;;;4.20;1.13;;;6.20;99.90;;;;;;5106313;28;20123;-68
2024/02/26 09:05:45;;;;;;;1.40;0.63;;;6.20;99.90;;;;;;5104389;28;20050;-68
2024/02/26 09:08:11;;;;;;;4.07;1.42;;;6.30;99.90;;;;;;5086977;28;20551;-68
2024/02/26 09:10:39;;;;;;;4.82;0.88;;;6.30;99.90;;;;;;5104718;28;20635;-69
2024/02/26 09:13:06;;;;;;;4.90;1.08;;;6.20;99.90;;;;;;5086066;28;20077;-69
2024/02/26 09:15:32;;;;;;;7.60;0.98;;;6.30;99.90;;;;;;5106314;28;20122;-68
2024/02/26 09:17:59;;;;;;;3.97;0.90;;;6.30;99.90;;;;;;5108297;28;20089;-67
2024/02/26 09:20:26;;;;;;;8.85;1.27;;;6.30;99.90;;;;;;5108578;28;20086;-67
2024/02/26 09:22:53;;;;;;;3.00;0.85;;;6.30;99.90;;;;;;5103164;28;20048;-68
2024/02/26 09:25:20;;;;;;;6.97;1.45;;;6.40;99.90;;;;;;5078314;28;20055;-68
2024/02/26 09:27:48;;;;;;;5.35;0.98;;;6.30;99.90;;;;;;5099516;28;20036;-68
2024/02/26 09:30:14;;;;;;;9.98;1.38;;;6.40;99.90;;;;;;5096999;28;20143;-69
2024/02/26 09:32:41;;;;;;;6.22;1.13;;;6.40;99.90;;;;;;5105611;28;20054;-68
2024/02/26 09:35:08;;;;;;;1.60;0.70;;;6.40;99.90;;;;;;5087074;28;20075;-68
2024/02/26 09:37:36;;;;;;;5.15;1.23;;;6.40;99.90;;;;;;5086720;28;20043;-67
2024/02/26 09:40:06;;;;;;;4.60;1.00;;;6.40;99.90;;;;;;5102293;28;20058;-68
2024/02/26 09:42:33;;;;;;;10.82;1.58;;;6.50;99.90;;;;;;5084833;28;20423;-69
2024/02/26 09:45:02;;;;;;;12.80;1.35;;;6.50;99.90;;;;;;5080728;28;20047;-67
2024/02/26 09:47:31;;;;;;;4.38;1.25;;;6.50;99.90;;;;;;5105254;28;20127;-69
2024/02/26 09:49:57;;;;;;;9.38;0.93;;;6.60;99.90;;;;;;5106084;28;20048;-67
2024/02/26 09:52:24;;;;;;;8.02;1.48;;;6.60;99.90;;;;;;5087633;28;20047;-68
2024/02/26 09:54:51;;;;;;;8.32;1.05;;;6.60;99.90;;;;;;5105980;28;20101;-68
2024/02/26 09:57:18;;;;;;;4.93;1.25;;;6.60;99.90;;;;;;5104970;28;20040;-68
2024/02/26 09:59:45;;;;;;;4.13;1.17;;;6.60;99.90;;;;;;5084327;28;20060;-68
2024/02/26 10:02:13;;;;;;;6.05;1.13;;;6.60;99.90;;;;;;5070215;28;20048;-68
2024/02/26 10:04:40;;;;;;;4.38;1.85;;;6.60;99.90;;;;;;5105663;28;20043;-67
2024/02/26 10:07:12;;;;;;;7.20;1.00;;;6.70;99.90;;;;;;5105552;28;20412;-68
2024/02/26 10:09:39;;;;;;;8.45;2.08;;;6.70;99.90;;;;;;5105445;28;20058;-68
2024/02/26 10:12:08;;;;;;;5.30;1.17;;;6.70;99.90;;;;;;5098787;28;20193;-68
2024/02/26 10:14:36;;;;;;;4.18;1.08;;;6.80;99.90;;;;;;5082454;28;20039;-67
2024/02/26 10:17:04;;;;;;;2.83;0.95;;;6.80;99.90;;;;;;5067820;28;20052;-67
2024/02/26 10:19:30;;;;;;;6.05;1.50;;;6.80;99.90;;;;;;5064033;28;20055;-69
2024/02/26 10:22:03;;;;;;;1.42;0.63;;;6.90;99.90;;;;;;5097500;28;20048;-68
2024/02/26 10:24:30;;;;;;;6.28;1.15;;;6.90;99.90;;;;;;5102569;28;20495;-69
2024/02/26 10:26:57;;;;;;;6.60;1.17;;;6.90;99.90;;;;;;5091100;28;20105;-69
2024/02/26 10:29:25;;;;;;;6.72;1.25;;;6.90;99.90;;;;;;5080970;28;20062;-68
2024/02/26 10:31:52;;;;;;;4.20;0.70;;;6.90;99.90;;;;;;5100882;28;20059;-68
2024/02/26 10:34:19;;;;;;;4.95;1.30;;;6.80;99.90;;;;;;5102152;28;20447;-67
2024/02/26 10:36:46;;;;;;;4.13;0.95;;;6.80;99.90;;;;;;5089886;28;20047;-67
2024/02/26 10:39:20;;;;;;;6.72;0.93;;;6.90;99.90;;;;;;5108440;28;20158;-67
2024/02/26 10:41:47;;;;;;;4.20;1.02;;;6.90;99.90;;;;;;5108486;28;20096;-68
2024/02/26 10:44:14;;;;;;;8.55;1.40;;;6.80;99.90;;;;;;5073546;28;20043;-68
2024/02/26 10:46:46;;;;;;;4.10;0.80;;;6.80;99.90;;;;;;5108890;28;20300;-68
2024/02/26 10:49:19;;;;;;;5.00;0.60;;;6.70;99.90;;;;;;5073053;28;20047;-67
2024/02/26 10:51:54;;;;;;;1.75;0.90;;;6.70;99.90;;;;;;5108076;28;20412;-68
2024/02/26 10:54:21;;;;;;;3.53;1.00;;;6.60;99.90;;;;;;5073061;28;20044;-67
2024/02/26 10:56:48;;;;;;;4.93;1.58;;;6.70;99.90;;;;;;5090226;28;20296;-67
2024/02/26 10:59:20;;;;;;;6.65;0.95;;;6.70;99.90;;;;;;5072104;28;20074;-67
2024/02/26 11:01:49;;;;;;;5.80;1.17;;;6.70;99.90;;;;;;5090918;28;20554;-68
2024/02/26 11:04:17;;;;;;;3.60;0.75;;;6.70;99.90;;;;;;5107503;28;20047;-67
2024/02/26 11:06:45;;;;;;;4.18;1.20;;;6.70;99.90;;;;;;5108465;28;20039;-68
2024/02/26 11:09:13;;;;;;;4.97;1.13;;;6.70;99.90;;;;;;5089704;28;20127;-67
2024/02/26 11:11:40;;;;;;;5.00;1.98;;;6.70;99.90;;;;;;5073213;28;20105;-68
2024/02/26 11:14:08;;;;;;;2.40;0.82;;;6.70;99.90;;;;;;5081481;28;20371;-67
2024/02/26 11:16:35;;;;;;;8.98;1.52;;;6.70;99.90;;;;;;5072924;28;20520;-67
2024/02/26 11:19:02;;;;;;;2.15;0.82;;;6.80;99.90;;;;;;5107443;28;20140;-68
2024/02/26 11:21:38;;;;;;;5.25;1.20;;;6.80;99.90;;;;;;5108212;28;20137;-68
2024/02/26 11:24:11;;;;;;;7.30;1.35;;;6.80;99.90;;;;;;5087333;28;20044;-68
2024/02/26 11:26:58;;;;;;;3.67;0.97;;;6.80;99.90;;;;;;5100579;28;20047;-68
2024/02/26 11:29:37;;;;;;;5.95;1.25;;;6.80;99.90;;;;;;5082752;28;20097;-68
2024/02/26 11:32:06;;;;;;;3.03;0.90;;;6.90;99.90;;;;;;5084830;28;20119;-67
2024/02/26 11:34:33;;;;;;;3.58;0.82;;;6.90;99.90;;;;;;5090135;28;20066;-67
2024/02/26 11:37:10;;;;;;;2.92;0.40;;;6.90;99.90;;;;;;5088729;28;20054;-68
2024/02/26 11:39:38;;;;;;;2.75;0.68;;;7.00;99.90;;;;;;5090182;28;20524;-68
2024/02/26 11:42:06;;;;;;;6.22;1.75;;;7.00;99.90;;;;;;5089841;28;20054;-68
2024/02/26 11:44:33;;;;;;;2.45;0.90;;;7.00;99.90;;;;;;5073380;28;20051;-68
2024/02/26 11:47:13;;;;;;;6.10;1.42;;;7.10;99.90;;;;;;5100111;28;20059;-68
2024/02/26 11:49:40;;;;;;;2.33;0.75;;;7.00;99.90;;;;;;5101860;28;20048;-69
2024/02/26 11:52:08;;;;;;;4.05;0.85;;;7.10;99.90;;;;;;5084774;28;20047;-67
2024/02/26 11:54:39;;;;;;;7.72;0.88;;;7.10;99.90;;;;;;5103986;28;20047;-67
2024/02/26 11:57:28;;;;;;;2.88;0.95;;;7.10;99.90;;;;;;5107025;28;20104;-67
2024/02/26 11:59:57;;;;;;;5.50;0.90;;;7.10;99.90;;;;;;5087919;28;20044;-67
2024/02/26 12:02:42;;;;;;;2.92;0.85;;;7.10;99.90;;;;;;5107656;28;20062;-67
2024/02/26 12:05:23;;;;;;;2.47;0.50;;;7.10;99.90;;;;;;5105512;28;20054;-68
2024/02/26 12:07:56;;;;;;;6.63;1.85;;;7.10;99.90;;;;;;5106935;28;20067;-68
2024/02/26 12:10:25;;;;;;;5.20;0.70;;;7.20;99.90;;;;;;5100958;28;20594;-68
2024/02/26 12:13:00;;;;;;;5.85;0.95;;;7.20;99.90;;;;;;5100966;28;20139;-68
2024/02/26 12:15:33;;;;;;;5.22;0.95;;;7.20;99.90;;;;;;5106851;28;20143;-68
2024/02/26 12:18:01;;;;;;;;;;;7.20;99.90;;;;;;5089608;28;20043;-67
2024/02/26 12:20:28;;;;;;;7.85;1.00;;;7.30;99.90;;;;;;5108127;28;20282;-68
2024/02/26 12:22:55;;;;;;;6.55;1.02;;;7.40;99.90;;;;;;5085998;28;20070;-67
2024/02/26 12:25:25;;;;;;;3.15;0.60;;;7.40;99.90;;;;;;5082250;28;20101;-66
2024/02/26 12:27:55;;;;;;;4.38;0.95;;;7.40;99.90;;;;;;5089826;28;20043;-67
2024/02/26 12:30:22;;;;;;;5.70;1.00;;;7.50;99.90;;;;;;5108601;28;20051;-66
2024/02/26 12:32:50;;;;;;;3.72;0.90;;;7.40;99.90;;;;;;5107977;28;20046;-68
2024/02/26 12:35:17;;;;;;;3.22;0.68;;;7.60;99.90;;;;;;5066288;28;20556;-67
2024/02/26 12:37:44;;;;;;;8.63;1.30;;;7.60;99.90;;;;;;5101484;28;20051;-67
2024/02/26 12:40:12;;;;;;;1.08;0.57;;;7.70;99.90;;;;;;5099333;28;20048;-67
2024/02/26 12:42:39;;;;;;;5.18;1.02;;;7.60;99.90;;;;;;5103331;28;20596;-67
2024/02/26 12:45:09;;;;;;;4.53;1.80;;;7.60;99.90;;;;;;5087306;28;20110;-68
2024/02/26 12:47:39;;;;;;;7.07;1.77;;;7.60;99.90;;;;;;5095006;28;20051;-69
2024/02/26 12:50:06;;;;;;;3.75;1.08;;;7.60;99.90;;;;;;5081505;28;20046;-68
2024/02/26 12:52:37;;;;;;;4.15;0.57;;;7.50;99.90;;;;;;5102541;28;20063;-67
2024/02/26 12:55:05;;;;;;;2.30;0.63;;;7.50;99.90;;;;;;5088554;28;20043;-68